createdAt,value
2023-04-06T00:00:19.705Z,99449.07
2023-04-06T00:01:24.703Z,99442.31
2023-04-06T00:02:28.404Z,99438.93
2023-04-06T00:03:31.831Z,99443.78
2023-04-06T00:04:38.433Z,99446.83
2023-04-06T00:05:42.233Z,99435.94
2023-04-06T00:06:45.736Z,99440.52
2023-04-06T00:07:51.248Z,99437.63
2023-04-06T00:08:54.288Z,99438.35
2023-04-06T00:09:57.521Z,99441.75
2023-04-06T00:11:01.326Z,99433.42
2023-04-06T00:12:04.829Z,99430.88
2023-04-06T00:13:08.441Z,99443.70
2023-04-06T00:14:11.722Z,99446.09
2023-04-06T00:15:17.706Z,99439.82
2023-04-06T00:16:24.329Z,99439.09
2023-04-06T00:17:26.911Z,99432.23
2023-04-06T00:18:31.382Z,99430.78
2023-04-06T00:19:34.898Z,99436.58
2023-04-06T00:20:38.120Z,99428.61
2023-04-06T00:21:40.510Z,99426.79
2023-04-06T00:22:44.995Z,99433.92
2023-04-06T00:23:47.890Z,99440.66
2023-04-06T00:24:51.698Z,99427.65
2023-04-06T00:25:54.887Z,99430.77
2023-04-06T00:26:58.128Z,99428.47
2023-04-06T00:28:01.893Z,99428.95
2023-04-06T00:29:04.782Z,99430.52
2023-04-06T00:30:09.611Z,99428.72
2023-04-06T00:31:12.879Z,99433.06
2023-04-06T00:32:16.454Z,99428.11
2023-04-06T00:33:19.525Z,99434.77
2023-04-06T00:34:22.849Z,99423.88
2023-04-06T00:35:26.337Z,99430.03
2023-04-06T00:36:29.940Z,99434.77
2023-04-06T00:37:33.758Z,99425.70
2023-04-06T00:38:40.520Z,99434.28
2023-04-06T00:39:44.127Z,99436.41
2023-04-06T00:40:46.449Z,99429.30
2023-04-06T00:41:51.850Z,99424.37
2023-04-06T00:42:55.876Z,99420.05
2023-04-06T00:43:59.177Z,99426.55
2023-04-06T00:45:04.382Z,99424.50
2023-04-06T00:46:08.195Z,99427.39
2023-04-06T00:47:16.997Z,99423.79
2023-04-06T00:48:21.546Z,99428.59
2023-04-06T00:49:24.947Z,99424.86
2023-04-06T00:50:28.659Z,99423.41
2023-04-06T00:51:33.200Z,99429.33
2023-04-06T00:52:37.344Z,99409.91
2023-04-06T00:53:40.525Z,99421.59
2023-04-06T00:54:44.275Z,99424.74
2023-04-06T00:55:47.751Z,99413.77
2023-04-06T00:56:51.290Z,99418.47
2023-04-06T00:57:56.122Z,99417.27
2023-04-06T00:59:00.800Z,99420.77
2023-04-06T01:00:05.210Z,99410.52
2023-04-06T01:01:09.578Z,99417.02
2023-04-06T01:02:12.848Z,99411.22
2023-04-06T01:03:21.214Z,99412.08
2023-04-06T01:04:24.768Z,99411.58
2023-04-06T01:05:28.946Z,99409.88
2023-04-06T01:06:34.519Z,99403.04
2023-04-06T01:07:38.008Z,99409.17
2023-04-06T01:08:46.638Z,99421.02
2023-04-06T01:09:56.726Z,99411.20
2023-04-06T01:11:05.705Z,99414.69
2023-04-06T01:12:11.350Z,99418.08
2023-04-06T01:13:17.492Z,99417.00
2023-04-06T01:14:26.588Z,99413.50
2023-04-06T01:15:34.759Z,99413.06
2023-04-06T01:16:39.473Z,99417.64
2023-04-06T01:17:45.446Z,99417.23
2023-04-06T01:18:52.553Z,99414.08
2023-04-06T01:19:58.957Z,99418.69
2023-04-06T01:21:04.121Z,99410.84
2023-04-06T01:22:07.026Z,99415.42
2023-04-06T01:23:12.148Z,99410.64
2023-04-06T01:24:18.539Z,99412.79
2023-04-06T01:25:33.592Z,99413.05
2023-04-06T01:26:41.637Z,99409.56
2023-04-06T01:27:45.574Z,99408.21
2023-04-06T01:28:50.765Z,99408.09
2023-04-06T01:29:55.752Z,99409.56
2023-04-06T01:31:00.780Z,99414.14
2023-04-06T01:32:11.653Z,99403.53
2023-04-06T01:33:15.689Z,99409.16
2023-04-06T01:34:22.044Z,99402.77
2023-04-06T01:35:27.470Z,99403.35
2023-04-06T01:36:32.663Z,99407.70
2023-04-06T01:37:38.219Z,99405.16
2023-04-06T01:38:42.962Z,99399.50
2023-04-06T01:39:51.193Z,99401.31
2023-04-06T01:40:56.667Z,99404.48
2023-04-06T01:42:00.685Z,99399.52
2023-04-06T01:43:04.887Z,99402.04
2023-04-06T01:44:09.937Z,99401.31
2023-04-06T01:45:13.145Z,99403.61
2023-04-06T01:46:16.461Z,99405.44
2023-04-06T01:47:20.127Z,99407.14
2023-04-06T01:48:23.604Z,99401.33
2023-04-06T01:49:27.110Z,99400.37
2023-04-06T01:50:32.474Z,99396.63
2023-04-06T01:51:36.194Z,99394.48
2023-04-06T01:52:40.973Z,99391.11
2023-04-06T01:53:46.024Z,99396.12
2023-04-06T01:54:49.269Z,99383.48
2023-04-06T01:55:53.971Z,99382.63
2023-04-06T01:57:03.560Z,99393.48
2023-04-06T01:58:17.487Z,99388.41
2023-04-06T01:59:20.801Z,99389.13
2023-04-06T02:00:25.921Z,99385.39
2023-04-06T02:01:29.274Z,99388.45
2023-04-06T02:02:32.694Z,99378.63
2023-04-06T02:03:37.955Z,99376.13
2023-04-06T02:04:43.059Z,99383.70
2023-04-06T02:05:48.050Z,99373.70
2023-04-06T02:06:56.025Z,99382.86
2023-04-06T02:08:00.052Z,99380.32
2023-04-06T02:09:10.813Z,99374.90
2023-04-06T02:10:14.726Z,99378.28
2023-04-06T02:11:17.798Z,99375.39
2023-04-06T02:12:22.986Z,99384.90
2023-04-06T02:13:25.829Z,99377.55
2023-04-06T02:14:29.650Z,99374.55
2023-04-06T02:15:36.722Z,99378.80
2023-04-06T02:16:40.453Z,99376.61
2023-04-06T02:17:44.283Z,99381.32
2023-04-06T02:18:47.466Z,99371.77
2023-04-06T02:19:53.037Z,99371.06
2023-04-06T02:20:57.507Z,99369.48
2023-04-06T02:22:00.728Z,99362.88
2023-04-06T02:23:07.021Z,99370.08
2023-04-06T02:24:10.573Z,99377.09
2023-04-06T02:25:13.004Z,99367.20
2023-04-06T02:26:15.392Z,99368.17
2023-04-06T02:27:18.916Z,99366.98
2023-04-06T02:28:23.799Z,99366.27
2023-04-06T02:29:27.314Z,99370.61
2023-04-06T02:30:33.707Z,99376.75
2023-04-06T02:31:37.073Z,99379.51
2023-04-06T02:32:40.730Z,99366.72
2023-04-06T02:33:45.778Z,99375.28
2023-04-06T02:34:50.382Z,99376.97
2023-04-06T02:35:55.012Z,99370.82
2023-04-06T02:36:59.177Z,99379.62
2023-04-06T02:38:02.757Z,99370.00
2023-04-06T02:39:06.093Z,99362.97
2023-04-06T02:40:10.723Z,99371.91
2023-04-06T02:41:15.777Z,99359.27
2023-04-06T02:42:19.194Z,99363.56
2023-04-06T02:43:23.509Z,99369.13
2023-04-06T02:44:31.017Z,99361.92
2023-04-06T02:45:33.695Z,99360.95
2023-04-06T02:46:37.082Z,99367.68
2023-04-06T02:47:41.554Z,99364.06
2023-04-06T02:48:45.166Z,99370.22
2023-04-06T02:49:48.721Z,99366.59
2023-04-06T02:50:52.611Z,99364.34
2023-04-06T02:51:56.014Z,99366.59
2023-04-06T02:53:01.136Z,99374.56
2023-04-06T02:54:03.982Z,99362.77
2023-04-06T02:55:08.129Z,99361.89
2023-04-06T02:56:11.862Z,99352.73
2023-04-06T02:57:17.172Z,99359.36
2023-04-06T02:58:22.486Z,99355.01
2023-04-06T02:59:28.576Z,99356.73
2023-04-06T03:00:38.628Z,99358.50
2023-04-06T03:01:41.969Z,99365.62
2023-04-06T03:02:45.189Z,99364.45
2023-04-06T03:03:51.421Z,99364.06
2023-04-06T03:04:55.813Z,99359.48
2023-04-06T03:06:01.642Z,99366.24
2023-04-06T03:07:06.728Z,99369.13
2023-04-06T03:08:11.967Z,99373.36
2023-04-06T03:09:16.870Z,99361.42
2023-04-06T03:10:20.672Z,99373.45
2023-04-06T03:11:24.406Z,99367.09
2023-04-06T03:12:28.215Z,99366.61
2023-04-06T03:13:52.240Z,99368.41
2023-04-06T03:14:54.799Z,99366.48
2023-04-06T03:15:58.863Z,99371.77
2023-04-06T03:17:02.804Z,99372.03
2023-04-06T03:18:07.963Z,99371.78
2023-04-06T03:19:13.269Z,99372.88
2023-04-06T03:20:16.854Z,99368.64
2023-04-06T03:21:21.034Z,99366.47
2023-04-06T03:22:26.067Z,99364.34
2023-04-06T03:23:28.613Z,99365.37
2023-04-06T03:24:36.304Z,99369.36
2023-04-06T03:25:41.132Z,99370.61
2023-04-06T03:26:46.190Z,99360.11
2023-04-06T03:27:49.452Z,99366.47
2023-04-06T03:28:54.240Z,99363.34
2023-04-06T03:30:00.334Z,99360.55
2023-04-06T03:31:06.009Z,99365.62
2023-04-06T03:32:14.020Z,99351.86
2023-04-06T03:33:18.388Z,99357.58
2023-04-06T03:34:24.053Z,99358.86
2023-04-06T03:35:27.256Z,99365.25
2023-04-06T03:36:30.246Z,99370.09
2023-04-06T03:37:33.939Z,99363.10
2023-04-06T03:38:40.140Z,99364.18
2023-04-06T03:39:45.391Z,99361.80
2023-04-06T03:40:50.472Z,99368.06
2023-04-06T03:41:55.096Z,99366.27
2023-04-06T03:43:05.276Z,99374.22
2023-04-06T03:44:09.879Z,99369.37
2023-04-06T03:45:18.824Z,99373.11
2023-04-06T03:46:24.253Z,99376.61
2023-04-06T03:47:29.610Z,99387.23
2023-04-06T03:48:34.801Z,99380.36
2023-04-06T03:49:40.675Z,99379.88
2023-04-06T03:50:45.733Z,99376.37
2023-04-06T03:51:49.077Z,99380.57
2023-04-06T03:52:52.368Z,99376.95
2023-04-06T03:53:56.162Z,99385.40
2023-04-06T03:54:59.514Z,99372.61
2023-04-06T03:56:04.651Z,99387.91
2023-04-06T03:57:07.068Z,99382.27
2023-04-06T03:58:09.476Z,99379.45
2023-04-06T03:59:12.739Z,99380.09
2023-04-06T04:00:16.251Z,99387.45
2023-04-06T04:01:18.793Z,99389.02
2023-04-06T04:02:21.929Z,99386.00
2023-04-06T04:03:27.923Z,99392.16
2023-04-06T04:04:31.310Z,99394.69
2023-04-06T04:05:35.898Z,99390.92
2023-04-06T04:06:42.294Z,99392.61
2023-04-06T04:07:45.701Z,99390.80
2023-04-06T04:08:49.076Z,99393.13
2023-04-06T04:09:52.295Z,99399.01
2023-04-06T04:10:56.524Z,99391.89
2023-04-06T04:11:59.778Z,99386.94
2023-04-06T04:13:03.560Z,99395.88
2023-04-06T04:14:07.880Z,99389.95
2023-04-06T04:15:10.364Z,99390.34
2023-04-06T04:16:13.720Z,99391.67
2023-04-06T04:17:19.678Z,99392.16
2023-04-06T04:18:22.942Z,99398.89
2023-04-06T04:19:27.717Z,99391.28
2023-04-06T04:20:32.486Z,99395.62
2023-04-06T04:21:38.335Z,99392.01
2023-04-06T04:22:43.813Z,99393.33
2023-04-06T04:23:46.772Z,99398.28
2023-04-06T04:24:50.240Z,99392.73
2023-04-06T04:25:54.495Z,99390.80
2023-04-06T04:26:57.478Z,99395.51
2023-04-06T04:28:00.881Z,99389.84
2023-04-06T04:29:04.705Z,99393.22
2023-04-06T04:30:10.008Z,99391.92
2023-04-06T04:31:13.317Z,99397.34
2023-04-06T04:32:18.889Z,99396.72
2023-04-06T04:33:24.817Z,99385.37
2023-04-06T04:34:29.520Z,99393.81
2023-04-06T04:35:32.769Z,99401.55
2023-04-06T04:36:35.092Z,99395.02
2023-04-06T04:37:40.676Z,99412.77
2023-04-06T04:38:44.424Z,99409.75
2023-04-06T04:39:47.896Z,99407.58
2023-04-06T04:40:52.133Z,99410.23
2023-04-06T04:41:55.335Z,99414.09
2023-04-06T04:42:58.522Z,99414.70
2023-04-06T04:44:03.536Z,99412.73
2023-04-06T04:45:07.054Z,99415.39
2023-04-06T04:46:11.339Z,99415.39
2023-04-06T04:47:18.218Z,99417.92
2023-04-06T04:48:24.024Z,99413.06
2023-04-06T04:49:33.829Z,99407.63
2023-04-06T04:50:37.261Z,99413.41
2023-04-06T04:51:40.582Z,99414.99
2023-04-06T04:52:46.077Z,99410.08
2023-04-06T04:53:51.894Z,99421.39
2023-04-06T04:54:58.979Z,99416.92
2023-04-06T04:56:05.005Z,99415.47
2023-04-06T04:57:10.786Z,99416.55
2023-04-06T04:58:21.180Z,99417.88
2023-04-06T04:59:28.910Z,99417.53
2023-04-06T05:00:34.252Z,99416.80
2023-04-06T05:01:47.698Z,99413.70
2023-04-06T05:02:42.908Z,99416.80
2023-04-06T05:03:49.688Z,99418.49
2023-04-06T05:04:53.670Z,99424.05
2023-04-06T05:05:58.872Z,99424.77
2023-04-06T05:07:09.848Z,99423.69
2023-04-06T05:08:15.405Z,99419.22
2023-04-06T05:09:20.413Z,99416.23
2023-04-06T05:11:37.889Z,99421.27
2023-04-06T05:12:41.073Z,99422.23
2023-04-06T05:13:46.904Z,99419.20
2023-04-06T05:14:51.987Z,99417.04
2023-04-06T05:15:56.123Z,99414.27
2023-04-06T05:17:04.117Z,99414.27
2023-04-06T05:18:09.525Z,99418.97
2023-04-06T05:19:13.193Z,99418.61
2023-04-06T05:20:18.675Z,99412.28
2023-04-06T05:21:25.474Z,99418.81
2023-04-06T05:22:30.477Z,99414.44
2023-04-06T05:23:41.740Z,99418.56
2023-04-06T05:24:44.799Z,99416.50
2023-04-06T05:25:48.210Z,99407.88
2023-04-06T05:26:55.997Z,99417.89
2023-04-06T05:28:00.968Z,99406.42
2023-04-06T05:29:09.138Z,99416.52
2023-04-06T05:30:15.994Z,99421.21
2023-04-06T05:31:21.014Z,99419.05
2023-04-06T05:32:27.209Z,99414.52
2023-04-06T05:33:31.319Z,99416.70
2023-04-06T05:34:42.873Z,99418.86
2023-04-06T05:35:46.126Z,99411.42
2023-04-06T05:36:50.099Z,99415.05
2023-04-06T05:37:57.035Z,99418.74
2023-04-06T05:39:01.937Z,99415.42
2023-04-06T05:40:07.925Z,99420.45
2023-04-06T05:41:12.974Z,99424.75
2023-04-06T05:42:16.800Z,99413.52
2023-04-06T05:43:25.750Z,99417.51
2023-04-06T05:44:31.032Z,99418.12
2023-04-06T05:45:47.587Z,99417.73
2023-04-06T05:46:51.463Z,99416.89
2023-04-06T05:47:55.773Z,99409.44
2023-04-06T05:49:06.709Z,99417.45
2023-04-06T05:50:12.516Z,99418.09
2023-04-06T05:51:16.337Z,99419.50
2023-04-06T05:52:20.552Z,99410.80
2023-04-06T05:53:25.801Z,99421.71
2023-04-06T05:54:30.759Z,99422.30
2023-04-06T05:55:36.260Z,99421.45
2023-04-06T05:56:44.674Z,99426.00
2023-04-06T05:57:49.537Z,99413.70
2023-04-06T05:58:57.678Z,99419.81
2023-04-06T06:00:09.176Z,99421.86
2023-04-06T06:01:20.427Z,99414.45
2023-04-06T06:02:24.410Z,99411.24
2023-04-06T06:03:31.390Z,99416.05
2023-04-06T06:04:34.934Z,99418.08
2023-04-06T06:05:39.758Z,99420.27
2023-04-06T06:06:45.150Z,99415.30
2023-04-06T06:07:52.519Z,99413.54
2023-04-06T06:08:58.414Z,99407.84
2023-04-06T06:10:03.697Z,99415.73
2023-04-06T06:11:08.877Z,99417.81
2023-04-06T06:12:14.664Z,99422.45
2023-04-06T06:13:18.322Z,99425.26
2023-04-06T06:14:21.077Z,99421.47
2023-04-06T06:15:25.514Z,99422.33
2023-04-06T06:16:29.977Z,99427.65
2023-04-06T06:17:36.679Z,99424.66
2023-04-06T06:18:39.638Z,99424.65
2023-04-06T06:19:44.886Z,99423.15
2023-04-06T06:20:48.370Z,99432.09
2023-04-06T06:21:53.680Z,99425.06
2023-04-06T06:22:56.512Z,99421.98
2023-04-06T06:24:02.532Z,99418.53
2023-04-06T06:25:06.713Z,99427.44
2023-04-06T06:26:10.391Z,99430.44
2023-04-06T06:27:14.309Z,99432.38
2023-04-06T06:28:20.348Z,99427.48
2023-04-06T06:29:25.491Z,99430.71
2023-04-06T06:30:32.028Z,99428.19
2023-04-06T06:31:37.726Z,99425.66
2023-04-06T06:32:42.008Z,99432.27
2023-04-06T06:33:45.571Z,99430.41
2023-04-06T06:34:49.393Z,99433.53
2023-04-06T06:35:52.864Z,99432.72
2023-04-06T06:36:55.880Z,99432.70
2023-04-06T06:37:59.515Z,99434.05
2023-04-06T06:39:05.074Z,99440.27
2023-04-06T06:40:08.937Z,99437.58
2023-04-06T06:41:13.494Z,99453.61
2023-04-06T06:42:16.635Z,99439.96
2023-04-06T06:43:31.222Z,99441.52
2023-04-06T06:44:38.074Z,99436.77
2023-04-06T06:45:44.646Z,99438.60
2023-04-06T06:46:51.037Z,99438.98
2023-04-06T06:47:56.473Z,99434.22
2023-04-06T06:48:59.179Z,99435.30
2023-04-06T06:50:04.906Z,99440.62
2023-04-06T06:51:08.308Z,99443.16
2023-04-06T06:52:14.017Z,99435.16
2023-04-06T06:53:18.865Z,99436.89
2023-04-06T06:54:22.133Z,99432.77
2023-04-06T06:55:27.216Z,99430.73
2023-04-06T06:56:30.558Z,99438.16
2023-04-06T06:57:34.018Z,99434.36
2023-04-06T06:58:36.742Z,99430.03
2023-04-06T06:59:40.663Z,99435.50
2023-04-06T07:00:44.033Z,99433.67
2023-04-06T07:01:48.454Z,99436.77
2023-04-06T07:02:52.040Z,99437.18
2023-04-06T07:03:58.234Z,99437.18
2023-04-06T07:05:15.993Z,99437.63
2023-04-06T07:06:11.380Z,99444.07
2023-04-06T07:07:17.562Z,99438.89
2023-04-06T07:08:27.928Z,99444.63
2023-04-06T07:09:32.330Z,99441.13
2023-04-06T07:10:36.858Z,99434.66
2023-04-06T07:11:40.143Z,99432.56
2023-04-06T07:12:42.942Z,99439.72
2023-04-06T07:13:46.539Z,99437.19
2023-04-06T07:14:49.963Z,99440.39
2023-04-06T07:15:54.599Z,99436.17
2023-04-06T07:17:01.818Z,99436.45
2023-04-06T07:18:06.353Z,99437.13
2023-04-06T07:19:11.198Z,99444.88
2023-04-06T07:20:14.864Z,99450.75
2023-04-06T07:21:18.979Z,99452.27
2023-04-06T07:22:23.459Z,99449.61
2023-04-06T07:23:27.157Z,99453.24
2023-04-06T07:24:29.843Z,99450.72
2023-04-06T07:25:33.348Z,99452.84
2023-04-06T07:26:37.777Z,99452.40
2023-04-06T07:27:44.808Z,99441.16
2023-04-06T07:28:49.356Z,99454.88
2023-04-06T07:29:52.906Z,99456.83
2023-04-06T07:30:57.842Z,99460.89
2023-04-06T07:32:01.783Z,99457.85
2023-04-06T07:33:05.728Z,99452.25
2023-04-06T07:34:12.293Z,99452.31
2023-04-06T07:35:16.297Z,99452.27
2023-04-06T07:36:21.868Z,99449.33
2023-04-06T07:37:25.675Z,99451.73
2023-04-06T07:38:29.337Z,99449.91
2023-04-06T07:39:32.901Z,99448.22
2023-04-06T07:40:38.700Z,99466.52
2023-04-06T07:41:42.523Z,99458.95
2023-04-06T07:42:45.813Z,99454.05
2023-04-06T07:43:50.163Z,99458.68
2023-04-06T07:44:54.503Z,99459.08
2023-04-06T07:45:59.105Z,99455.70
2023-04-06T07:47:03.502Z,99453.30
2023-04-06T07:48:06.687Z,99452.97
2023-04-06T07:49:12.180Z,99459.81
2023-04-06T07:50:17.671Z,99450.01
2023-04-06T07:51:22.233Z,99447.91
2023-04-06T07:52:25.723Z,99451.17
2023-04-06T07:53:27.969Z,99468.59
2023-04-06T07:54:31.902Z,99467.19
2023-04-06T07:55:35.716Z,99454.65
2023-04-06T07:56:39.225Z,99460.47
2023-04-06T07:57:42.924Z,99468.33
2023-04-06T07:58:46.441Z,99462.74
2023-04-06T07:59:50.854Z,99464.84
2023-04-06T08:00:55.673Z,99458.23
2023-04-06T08:01:59.148Z,99472.12
2023-04-06T08:03:03.802Z,99474.67
2023-04-06T08:04:07.973Z,99456.42
2023-04-06T08:05:10.710Z,99473.55
2023-04-06T08:06:13.587Z,99470.47
2023-04-06T08:07:15.946Z,99473.12
2023-04-06T08:08:20.506Z,99469.75
2023-04-06T08:09:26.294Z,99472.44
2023-04-06T08:10:30.950Z,99469.34
2023-04-06T08:11:34.345Z,99481.54
2023-04-06T08:12:37.753Z,99478.20
2023-04-06T08:13:41.267Z,99476.22
2023-04-06T08:14:48.612Z,99463.98
2023-04-06T08:15:50.890Z,99469.83
2023-04-06T08:16:54.698Z,99478.17
2023-04-06T08:17:58.670Z,99476.88
2023-04-06T08:19:02.123Z,99475.59
2023-04-06T08:20:06.350Z,99472.92
2023-04-06T08:21:09.703Z,99475.97
2023-04-06T08:22:13.575Z,99469.92
2023-04-06T08:23:16.668Z,99481.77
2023-04-06T08:24:19.331Z,99486.86
2023-04-06T08:25:22.941Z,99477.75
2023-04-06T08:26:29.791Z,99474.09
2023-04-06T08:27:36.216Z,99472.97
2023-04-06T08:28:39.722Z,99475.62
2023-04-06T08:29:46.584Z,99477.59
2023-04-06T08:30:49.097Z,99474.07
2023-04-06T08:31:52.792Z,99477.87
2023-04-06T08:32:56.374Z,99476.88
2023-04-06T08:33:59.564Z,99477.16
2023-04-06T08:35:02.009Z,99477.75
2023-04-06T08:36:08.958Z,99468.37
2023-04-06T08:37:13.870Z,99472.70
2023-04-06T08:38:18.570Z,99463.72
2023-04-06T08:39:26.728Z,99468.06
2023-04-06T08:40:30.708Z,99477.34
2023-04-06T08:41:35.879Z,99472.58
2023-04-06T08:42:43.059Z,99477.91
2023-04-06T08:43:48.321Z,99471.16
2023-04-06T08:44:53.856Z,99471.45
2023-04-06T08:46:00.680Z,99464.27
2023-04-06T08:47:06.205Z,99467.08
2023-04-06T08:48:09.103Z,99475.22
2023-04-06T08:49:13.489Z,99475.80
2023-04-06T08:50:17.397Z,99474.53
2023-04-06T08:51:20.901Z,99472.00
2023-04-06T08:52:25.273Z,99474.38
2023-04-06T08:53:28.226Z,99474.27
2023-04-06T08:54:31.739Z,99477.49
2023-04-06T08:55:34.815Z,99471.73
2023-04-06T08:56:39.862Z,99478.46
2023-04-06T08:57:42.978Z,99475.37
2023-04-06T08:58:47.823Z,99479.45
2023-04-06T08:59:55.720Z,99472.44
2023-04-06T09:01:00.958Z,99472.98
2023-04-06T09:02:07.731Z,99483.52
2023-04-06T09:03:13.531Z,99479.18
2023-04-06T09:04:18.108Z,99472.30
2023-04-06T09:05:21.504Z,99477.61
2023-04-06T09:06:24.907Z,99474.12
2023-04-06T09:07:28.728Z,99473.41
2023-04-06T09:08:31.069Z,99485.89
2023-04-06T09:09:36.641Z,99477.63
2023-04-06T09:10:43.209Z,99472.84
2023-04-06T09:11:51.850Z,99479.01
2023-04-06T09:13:06.976Z,99482.54
2023-04-06T09:14:12.421Z,99481.67
2023-04-06T09:15:21.130Z,99482.67
2023-04-06T09:16:27.302Z,99496.86
2023-04-06T09:17:33.389Z,99491.67
2023-04-06T09:18:38.167Z,99498.40
2023-04-06T09:19:47.900Z,99502.34
2023-04-06T09:20:53.286Z,99493.64
2023-04-06T09:22:07.533Z,99497.42
2023-04-06T09:23:15.382Z,99501.61
2023-04-06T09:24:19.477Z,99502.66
2023-04-06T09:25:24.773Z,99502.37
2023-04-06T09:26:27.733Z,99501.13
2023-04-06T09:27:32.401Z,99500.30
2023-04-06T09:28:53.455Z,99501.92
2023-04-06T09:29:58.955Z,99504.34
2023-04-06T09:31:02.247Z,99510.16
2023-04-06T09:32:06.698Z,99506.11
2023-04-06T09:33:10.504Z,99513.40
2023-04-06T09:34:17.019Z,99510.42
2023-04-06T09:35:22.267Z,99512.41
2023-04-06T09:36:33.861Z,99518.31
2023-04-06T09:37:37.091Z,99516.04
2023-04-06T09:38:42.960Z,99514.42
2023-04-06T09:39:47.647Z,99514.22
2023-04-06T09:41:01.330Z,99513.48
2023-04-06T09:42:00.891Z,99514.06
2023-04-06T09:43:08.945Z,99517.70
2023-04-06T09:44:13.068Z,99523.06
2023-04-06T09:45:17.797Z,99525.44
2023-04-06T09:46:22.994Z,99522.45
2023-04-06T09:47:31.372Z,99521.93
2023-04-06T09:48:38.412Z,99519.98
2023-04-06T09:49:42.754Z,99527.25
2023-04-06T09:50:47.971Z,99525.93
2023-04-06T09:51:52.185Z,99522.71
2023-04-06T09:52:56.017Z,99526.19
2023-04-06T09:54:06.610Z,99523.75
2023-04-06T09:55:11.908Z,99535.05
2023-04-06T09:56:16.106Z,99539.02
2023-04-06T09:57:23.211Z,99542.14
2023-04-06T09:58:32.434Z,99535.20
2023-04-06T09:59:39.125Z,99539.36
2023-04-06T10:00:46.356Z,99534.53
2023-04-06T10:01:51.755Z,99539.09
2023-04-06T10:03:00.518Z,99535.17
2023-04-06T10:04:15.129Z,99532.20
2023-04-06T10:05:20.576Z,99544.30
2023-04-06T10:06:24.948Z,99536.82
2023-04-06T10:07:28.690Z,99538.04
2023-04-06T10:08:33.969Z,99547.33
2023-04-06T10:09:37.860Z,99558.04
2023-04-06T10:10:41.794Z,99554.23
2023-04-06T10:11:46.317Z,99548.91
2023-04-06T10:12:49.606Z,99547.09
2023-04-06T10:13:54.012Z,99548.56
2023-04-06T10:14:57.422Z,99553.56
2023-04-06T10:16:03.870Z,99545.35
2023-04-06T10:17:07.133Z,99545.68
2023-04-06T10:18:10.843Z,99547.84
2023-04-06T10:19:21.542Z,99551.48
2023-04-06T10:20:30.759Z,99544.70
2023-04-06T10:21:34.170Z,99553.02
2023-04-06T10:22:39.361Z,99547.41
2023-04-06T10:23:47.443Z,99551.04
2023-04-06T10:24:50.946Z,99552.11
2023-04-06T10:25:55.164Z,99550.29
2023-04-06T10:27:03.062Z,99549.35
2023-04-06T10:28:06.460Z,99565.13
2023-04-06T10:29:09.567Z,99551.85
2023-04-06T10:30:14.576Z,99561.08
2023-04-06T10:31:19.901Z,99551.27
2023-04-06T10:32:24.889Z,99556.38
2023-04-06T10:33:27.710Z,99552.02
2023-04-06T10:34:37.626Z,99557.89
2023-04-06T10:35:40.488Z,99556.72
2023-04-06T10:36:45.732Z,99557.64
2023-04-06T10:37:50.704Z,99553.19
2023-04-06T10:39:07.619Z,99562.64
2023-04-06T10:40:12.815Z,99556.59
2023-04-06T10:41:17.769Z,99562.77
2023-04-06T10:42:22.902Z,99559.13
2023-04-06T10:43:27.984Z,99557.76
2023-04-06T10:44:30.724Z,99568.55
2023-04-06T10:45:34.105Z,99567.22
2023-04-06T10:46:37.293Z,99564.78
2023-04-06T10:47:42.213Z,99566.15
2023-04-06T10:48:49.996Z,99566.96
2023-04-06T10:49:55.956Z,99566.96
2023-04-06T10:50:58.847Z,99570.41
2023-04-06T10:52:02.093Z,99570.34
2023-04-06T10:53:04.846Z,99569.17
2023-04-06T10:54:10.283Z,99572.00
2023-04-06T10:55:14.152Z,99578.10
2023-04-06T10:56:18.797Z,99583.85
2023-04-06T10:57:23.698Z,99590.03
2023-04-06T10:58:28.110Z,99567.70
2023-04-06T10:59:32.580Z,99581.16
2023-04-06T11:00:47.368Z,99575.38
2023-04-06T11:01:44.502Z,99574.64
2023-04-06T11:02:47.485Z,99580.38
2023-04-06T11:03:55.005Z,99587.27
2023-04-06T11:04:59.024Z,99575.80
2023-04-06T11:06:03.114Z,99582.95
2023-04-06T11:07:06.675Z,99578.31
2023-04-06T11:08:09.906Z,99586.33
2023-04-06T11:09:13.335Z,99580.28
2023-04-06T11:10:20.883Z,99576.34
2023-04-06T11:11:27.099Z,99580.55
2023-04-06T11:12:31.526Z,99579.30
2023-04-06T11:13:43.974Z,99582.37
2023-04-06T11:14:56.714Z,99587.58
2023-04-06T11:16:00.436Z,99588.01
2023-04-06T11:17:04.675Z,99587.87
2023-04-06T11:18:09.001Z,99585.62
2023-04-06T11:19:13.896Z,99593.90
2023-04-06T11:20:17.255Z,99586.88
2023-04-06T11:21:21.312Z,99589.66
2023-04-06T11:22:23.907Z,99591.91
2023-04-06T11:23:28.201Z,99593.90
2023-04-06T11:24:31.468Z,99588.98
2023-04-06T11:25:33.761Z,99587.30
2023-04-06T11:26:40.844Z,99590.51
2023-04-06T11:27:43.970Z,99589.09
2023-04-06T11:28:46.623Z,99588.84
2023-04-06T11:29:51.193Z,99590.79
2023-04-06T11:30:54.654Z,99584.80
2023-04-06T11:32:01.975Z,99586.36
2023-04-06T11:33:06.163Z,99586.32
2023-04-06T11:34:12.290Z,99586.20
2023-04-06T11:35:25.050Z,99597.68
2023-04-06T11:36:31.630Z,99593.07
2023-04-06T11:37:34.650Z,99597.84
2023-04-06T11:38:43.353Z,99588.71
2023-04-06T11:39:53.566Z,99593.33
2023-04-06T11:40:56.294Z,99593.22
2023-04-06T11:42:09.040Z,99592.09
2023-04-06T11:43:13.028Z,99590.70
2023-04-06T11:44:16.705Z,99592.38
2023-04-06T11:45:19.047Z,99595.05
2023-04-06T11:46:23.131Z,99596.74
2023-04-06T11:47:34.006Z,99597.14
2023-04-06T11:48:40.476Z,99595.16
2023-04-06T11:49:46.053Z,99603.17
2023-04-06T11:50:51.111Z,99593.78
2023-04-06T11:51:53.817Z,99597.84
2023-04-06T11:53:04.459Z,99589.98
2023-04-06T11:54:08.932Z,99590.53
2023-04-06T11:55:15.586Z,99592.61
2023-04-06T11:56:25.836Z,99590.26
2023-04-06T11:57:29.348Z,99589.70
2023-04-06T11:58:31.960Z,99597.25
2023-04-06T11:59:35.744Z,99594.19
2023-04-06T12:00:39.077Z,99591.73
2023-04-06T12:01:47.234Z,99588.58
2023-04-06T12:02:50.653Z,99597.92
2023-04-06T12:03:54.481Z,99594.12
2023-04-06T12:04:59.026Z,99598.91
2023-04-06T12:06:02.403Z,99594.72
2023-04-06T12:07:05.916Z,99595.59
2023-04-06T12:08:09.507Z,99584.79
2023-04-06T12:09:12.893Z,99589.82
2023-04-06T12:10:16.345Z,99599.53
2023-04-06T12:11:22.207Z,99597.43
2023-04-06T12:12:25.186Z,99594.73
2023-04-06T12:13:29.022Z,99581.98
2023-04-06T12:14:32.423Z,99589.94
2023-04-06T12:15:37.764Z,99590.13
2023-04-06T12:16:42.081Z,99600.45
2023-04-06T12:17:45.143Z,99599.75
2023-04-06T12:18:48.481Z,99596.66
2023-04-06T12:19:51.316Z,99592.90
2023-04-06T12:20:59.660Z,99591.59
2023-04-06T12:22:03.480Z,99589.50
2023-04-06T12:23:07.038Z,99593.39
2023-04-06T12:24:11.309Z,99588.54
2023-04-06T12:25:14.615Z,99588.52
2023-04-06T12:26:16.936Z,99604.35
2023-04-06T12:27:21.139Z,99598.80
2023-04-06T12:28:25.652Z,99587.55
2023-04-06T12:29:28.804Z,99588.82
2023-04-06T12:30:32.029Z,99590.61
2023-04-06T12:31:39.325Z,99594.02
2023-04-06T12:32:42.523Z,99596.31
2023-04-06T12:33:48.240Z,99589.97
2023-04-06T12:34:54.527Z,99590.27
2023-04-06T12:35:57.390Z,99594.63
2023-04-06T12:37:01.945Z,99597.59
2023-04-06T12:38:05.387Z,99590.69
2023-04-06T12:39:07.596Z,99590.95
2023-04-06T12:40:13.178Z,99591.23
2023-04-06T12:41:17.695Z,99588.43
2023-04-06T12:42:20.767Z,99587.44
2023-04-06T12:44:30.513Z,99595.88
2023-04-06T12:45:33.792Z,99596.15